createdAt,value
2022-07-27T00:01:01.578Z,4.75
2022-07-27T00:02:07.041Z,4.58
2022-07-27T00:03:12.721Z,5.16
2022-07-27T00:04:15.671Z,4.78
2022-07-27T00:05:21.090Z,4.54
2022-07-27T00:06:27.138Z,4.41
2022-07-27T00:07:30.642Z,4.71
2022-07-27T00:08:35.021Z,4.62
2022-07-27T00:09:39.924Z,4.56
2022-07-27T00:10:44.849Z,4.68
2022-07-27T00:11:48.616Z,4.82
2022-07-27T00:12:53.628Z,4.95
2022-07-27T00:13:59.882Z,4.49
2022-07-27T00:15:06.460Z,4.89
2022-07-27T00:16:11.740Z,4.82
2022-07-27T00:17:15.754Z,4.93
2022-07-27T00:18:19.316Z,4.82
2022-07-27T00:19:25.548Z,4.59
2022-07-27T00:20:32.747Z,4.61
2022-07-27T00:21:44.590Z,4.88
2022-07-27T00:22:46.522Z,5.02
2022-07-27T00:23:50.169Z,4.96
2022-07-27T00:24:53.952Z,5.06
2022-07-27T00:25:57.506Z,5.24
2022-07-27T00:27:02.404Z,4.90
2022-07-27T00:28:06.397Z,5.27
2022-07-27T00:29:11.227Z,5.00
2022-07-27T00:30:25.381Z,4.94
2022-07-27T00:31:29.141Z,5.41
2022-07-27T00:32:32.559Z,5.42
2022-07-27T00:33:38.161Z,5.49
2022-07-27T00:34:41.735Z,5.38
2022-07-27T00:35:44.941Z,5.44
2022-07-27T00:36:48.112Z,5.42
2022-07-27T00:37:51.855Z,5.56
2022-07-27T00:38:54.592Z,5.78
2022-07-27T00:40:03.325Z,4.59
2022-07-27T00:41:12.256Z,5.26
2022-07-27T00:42:15.872Z,4.91
2022-07-27T00:43:18.803Z,5.05
2022-07-27T00:44:29.216Z,5.29
2022-07-27T00:45:37.097Z,5.19
2022-07-27T00:46:40.814Z,4.77
2022-07-27T00:47:49.596Z,5.53
2022-07-27T00:48:53.253Z,4.93
2022-07-27T00:49:58.612Z,5.31
2022-07-27T00:51:01.800Z,5.26
2022-07-27T00:52:08.000Z,5.26
2022-07-27T00:53:12.066Z,4.88
2022-07-27T00:54:17.038Z,4.86
2022-07-27T00:55:21.159Z,5.07
2022-07-27T00:56:27.285Z,4.81
2022-07-27T00:57:31.973Z,4.54
2022-07-27T00:58:38.029Z,5.12
2022-07-27T00:59:47.918Z,4.67
2022-07-27T01:00:54.419Z,4.60
2022-07-27T01:01:58.527Z,4.74
2022-07-27T01:03:08.791Z,4.49
2022-07-27T01:04:11.259Z,4.76
2022-07-27T01:05:14.879Z,4.87
2022-07-27T01:06:26.761Z,4.64
2022-07-27T01:07:27.139Z,5.01
2022-07-27T01:08:30.942Z,4.86
2022-07-27T01:09:55.390Z,5.09
2022-07-27T01:10:59.576Z,4.79
2022-07-27T01:12:07.294Z,4.85
2022-07-27T01:13:12.660Z,5.22
2022-07-27T01:14:20.485Z,4.91
2022-07-27T01:15:27.121Z,4.82
2022-07-27T01:16:30.994Z,5.02
2022-07-27T01:17:36.282Z,4.83
2022-07-27T01:18:40.653Z,5.19
2022-07-27T01:19:48.425Z,4.81
2022-07-27T01:20:52.087Z,4.65
2022-07-27T01:21:55.007Z,4.81
2022-07-27T01:22:58.427Z,4.59
2022-07-27T01:24:02.359Z,5.03
2022-07-27T01:25:05.867Z,4.80
2022-07-27T01:26:10.263Z,4.45
2022-07-27T01:27:15.022Z,4.61
2022-07-27T01:28:20.416Z,4.96
2022-07-27T01:29:23.908Z,4.84
2022-07-27T01:30:30.757Z,4.78
2022-07-27T01:31:34.879Z,4.58
2022-07-27T01:32:38.435Z,5.04
2022-07-27T01:33:42.280Z,4.81
2022-07-27T01:34:47.725Z,4.99
2022-07-27T01:35:56.517Z,5.23
2022-07-27T01:37:03.171Z,4.99
2022-07-27T01:38:10.669Z,5.19
2022-07-27T01:39:15.690Z,4.62
2022-07-27T01:40:20.997Z,4.85
2022-07-27T01:41:25.951Z,5.24
2022-07-27T01:42:31.358Z,4.57
2022-07-27T01:43:36.328Z,4.71
2022-07-27T01:44:41.418Z,5.28
2022-07-27T01:45:46.756Z,5.04
2022-07-27T01:46:55.183Z,4.92
2022-07-27T01:47:57.975Z,4.71
2022-07-27T01:49:01.734Z,4.87
2022-07-27T01:50:08.695Z,4.73
2022-07-27T01:51:15.550Z,5.04
2022-07-27T01:52:19.334Z,4.66
2022-07-27T01:53:23.831Z,4.51
2022-07-27T01:54:27.373Z,4.92
2022-07-27T01:55:41.026Z,4.88
2022-07-27T01:56:44.849Z,4.88
2022-07-27T01:57:48.436Z,5.26
2022-07-27T01:58:53.084Z,5.09
2022-07-27T01:59:56.769Z,5.49
2022-07-27T02:01:01.010Z,4.48
2022-07-27T02:02:06.417Z,4.90
2022-07-27T02:03:15.948Z,4.64
2022-07-27T02:04:20.733Z,4.80
2022-07-27T02:05:23.695Z,4.99
2022-07-27T02:06:30.301Z,4.50
2022-07-27T02:07:35.206Z,4.92
2022-07-27T02:08:38.932Z,4.84
2022-07-27T02:09:42.094Z,4.58
2022-07-27T02:11:05.202Z,4.60
2022-07-27T02:12:29.152Z,4.64
2022-07-27T02:13:33.042Z,4.49
2022-07-27T02:14:39.905Z,4.72
2022-07-27T02:17:01.643Z,4.47
2022-07-27T02:18:33.318Z,4.38
2022-07-27T02:19:15.368Z,4.64
2022-07-27T02:20:23.275Z,4.42
2022-07-27T02:21:26.613Z,4.51
2022-07-27T02:22:32.184Z,4.52
2022-07-27T02:23:36.803Z,4.46
2022-07-27T02:24:40.574Z,4.52
2022-07-27T02:25:51.493Z,4.88
2022-07-27T02:26:58.255Z,4.47
2022-07-27T02:28:05.028Z,4.53
2022-07-27T02:29:09.089Z,4.82
2022-07-27T02:30:13.190Z,4.88
2022-07-27T02:31:17.477Z,4.64
2022-07-27T02:32:25.357Z,4.42
2022-07-27T02:33:29.460Z,4.20
2022-07-27T02:34:32.253Z,4.79
2022-07-27T02:35:35.674Z,4.33
2022-07-27T02:36:41.354Z,4.48
2022-07-27T02:37:46.188Z,4.90
2022-07-27T02:38:49.683Z,4.67
2022-07-27T02:39:55.003Z,4.83
2022-07-27T02:40:59.071Z,4.66
2022-07-27T02:42:03.576Z,4.92
2022-07-27T02:43:10.374Z,5.14
2022-07-27T02:44:14.978Z,4.29
2022-07-27T02:45:18.754Z,4.38
2022-07-27T02:46:22.965Z,4.73
2022-07-27T02:47:26.465Z,4.78
2022-07-27T02:48:30.657Z,4.76
2022-07-27T02:49:33.192Z,4.65
2022-07-27T02:50:37.604Z,4.36
2022-07-27T02:51:41.494Z,4.62
2022-07-27T02:52:48.408Z,4.89
2022-07-27T02:53:51.421Z,4.28
2022-07-27T02:54:55.205Z,4.64
2022-07-27T02:56:02.284Z,4.74
2022-07-27T02:57:07.317Z,4.37
2022-07-27T02:58:12.177Z,4.51
2022-07-27T02:59:19.048Z,4.68
2022-07-27T03:00:23.725Z,4.38
2022-07-27T03:01:27.588Z,4.94
2022-07-27T03:02:30.238Z,4.74
2022-07-27T03:03:37.453Z,4.75
2022-07-27T03:04:45.162Z,4.46
2022-07-27T03:05:50.246Z,4.69
2022-07-27T03:06:55.636Z,4.64
2022-07-27T03:08:00.306Z,4.29
2022-07-27T03:09:04.771Z,4.46
2022-07-27T03:10:12.969Z,4.82
2022-07-27T03:12:30.741Z,4.63
2022-07-27T03:13:34.442Z,4.47
2022-07-27T03:14:37.982Z,4.46
2022-07-27T03:15:45.907Z,4.27
2022-07-27T03:16:50.232Z,4.23
2022-07-27T03:17:53.832Z,4.18
2022-07-27T03:19:01.500Z,4.42
2022-07-27T03:20:05.340Z,4.12
2022-07-27T03:21:10.272Z,4.14
2022-07-27T03:22:15.606Z,3.87
2022-07-27T03:23:23.319Z,4.32
2022-07-27T03:24:30.479Z,3.91
2022-07-27T03:25:35.393Z,3.95
2022-07-27T03:26:38.516Z,4.15
2022-07-27T03:27:43.967Z,4.36
2022-07-27T03:28:50.582Z,3.93
2022-07-27T03:29:54.024Z,4.18
2022-07-27T03:30:57.971Z,3.80
2022-07-27T03:32:03.200Z,3.55
2022-07-27T03:33:07.212Z,4.11
2022-07-27T03:34:11.029Z,3.50
2022-07-27T03:35:19.853Z,3.97
2022-07-27T03:36:25.060Z,3.96
2022-07-27T03:37:29.446Z,3.78
2022-07-27T03:38:36.739Z,3.81
2022-07-27T03:39:40.207Z,3.89
2022-07-27T03:40:47.097Z,3.87
2022-07-27T03:41:53.027Z,3.46
2022-07-27T03:42:57.897Z,4.19
2022-07-27T03:44:00.457Z,3.77
2022-07-27T03:45:04.910Z,3.95
2022-07-27T03:46:12.700Z,3.81
2022-07-27T03:47:17.791Z,3.69
2022-07-27T03:48:21.519Z,3.68
2022-07-27T03:49:28.170Z,4.02
2022-07-27T03:50:33.553Z,3.94
2022-07-27T03:51:39.820Z,3.83
2022-07-27T03:52:45.614Z,4.02
2022-07-27T03:53:48.668Z,4.06
2022-07-27T03:54:52.214Z,3.98
2022-07-27T03:55:56.894Z,3.78
2022-07-27T03:57:00.581Z,3.57
2022-07-27T03:58:06.023Z,3.91
2022-07-27T03:59:13.810Z,3.98
2022-07-27T04:00:19.247Z,3.88
2022-07-27T04:01:23.099Z,3.94
2022-07-27T04:02:26.105Z,3.76
2022-07-27T04:03:28.614Z,4.05
2022-07-27T04:04:35.911Z,3.81
2022-07-27T04:05:39.233Z,3.78
2022-07-27T04:06:43.143Z,3.84
2022-07-27T04:07:47.227Z,3.39
2022-07-27T04:08:54.981Z,4.02
2022-07-27T04:09:57.183Z,3.96
2022-07-27T04:11:02.059Z,3.58
2022-07-27T04:12:05.347Z,4.18
2022-07-27T04:13:10.494Z,3.80
2022-07-27T04:14:14.940Z,4.11
2022-07-27T04:15:19.447Z,4.12
2022-07-27T04:16:26.347Z,3.74
2022-07-27T04:17:55.448Z,3.69
2022-07-27T04:18:38.717Z,3.84
2022-07-27T04:19:41.966Z,3.52
2022-07-27T04:20:46.798Z,3.92
2022-07-27T04:21:59.794Z,3.90
2022-07-27T04:23:05.438Z,4.14
2022-07-27T04:24:08.978Z,3.94
2022-07-27T04:25:13.597Z,3.71
2022-07-27T04:26:17.760Z,3.85
2022-07-27T04:27:22.538Z,3.99
2022-07-27T04:28:26.065Z,4.21
2022-07-27T04:29:29.702Z,4.25
2022-07-27T04:30:34.918Z,4.04
2022-07-27T04:31:39.172Z,3.70
2022-07-27T04:32:45.581Z,4.10
2022-07-27T04:33:50.673Z,4.00
2022-07-27T04:34:56.096Z,3.76
2022-07-27T04:35:59.753Z,4.36
2022-07-27T04:37:03.383Z,3.85
2022-07-27T04:38:07.350Z,3.84
2022-07-27T04:39:11.547Z,3.54
2022-07-27T04:40:20.181Z,3.71
2022-07-27T04:41:30.291Z,3.52
2022-07-27T04:42:29.618Z,3.46
2022-07-27T04:43:34.622Z,3.32
2022-07-27T04:44:39.071Z,3.68
2022-07-27T04:45:43.247Z,3.57
2022-07-27T04:46:48.113Z,3.84
2022-07-27T04:47:51.780Z,3.65
2022-07-27T04:48:54.957Z,3.67
2022-07-27T04:50:00.338Z,3.72
2022-07-27T04:51:03.813Z,4.11
2022-07-27T04:52:07.360Z,3.72
2022-07-27T04:53:10.578Z,3.47
2022-07-27T04:54:14.516Z,3.15
2022-07-27T04:55:19.180Z,3.96
2022-07-27T04:56:22.658Z,3.67
2022-07-27T04:57:31.330Z,3.38
2022-07-27T04:58:36.501Z,3.70
2022-07-27T04:59:40.050Z,4.29
2022-07-27T05:00:43.764Z,4.10
2022-07-27T05:01:47.682Z,4.03
2022-07-27T05:02:51.314Z,3.99
2022-07-27T05:03:55.388Z,3.74
2022-07-27T05:05:03.985Z,4.13
2022-07-27T05:06:08.381Z,3.69
2022-07-27T05:07:11.836Z,3.67
2022-07-27T05:08:18.219Z,3.62
2022-07-27T05:09:22.596Z,3.57
2022-07-27T05:10:30.132Z,3.21
2022-07-27T05:11:33.709Z,3.52
2022-07-27T05:12:38.000Z,3.51
2022-07-27T05:13:41.837Z,3.59
2022-07-27T05:14:46.998Z,3.51
2022-07-27T05:15:56.019Z,3.64
2022-07-27T05:16:58.787Z,3.51
2022-07-27T05:18:08.978Z,3.82
2022-07-27T05:19:12.568Z,3.59
2022-07-27T05:20:18.459Z,3.51
2022-07-27T05:21:22.277Z,3.88
2022-07-27T05:22:29.057Z,3.66
2022-07-27T05:23:32.985Z,3.98
2022-07-27T05:24:40.066Z,3.97
2022-07-27T05:25:43.475Z,4.03
2022-07-27T05:26:48.576Z,3.84
2022-07-27T05:29:05.344Z,3.94
2022-07-27T05:30:13.213Z,3.75
2022-07-27T05:31:19.256Z,3.96
2022-07-27T05:32:23.437Z,3.91
2022-07-27T05:33:27.151Z,3.70
2022-07-27T05:34:29.892Z,3.48
2022-07-27T05:35:36.725Z,3.81
2022-07-27T05:36:40.405Z,3.19
2022-07-27T05:37:45.103Z,3.06
2022-07-27T05:38:48.681Z,3.29
2022-07-27T05:39:51.732Z,3.04
2022-07-27T05:40:54.714Z,2.82
2022-07-27T05:42:03.082Z,2.93
2022-07-27T05:43:06.875Z,2.46
2022-07-27T05:44:09.784Z,2.81
2022-07-27T05:45:14.306Z,2.48
2022-07-27T05:46:29.643Z,2.57
2022-07-27T05:47:31.410Z,2.68
2022-07-27T05:48:37.042Z,2.65
2022-07-27T05:49:40.536Z,2.76
2022-07-27T05:50:45.164Z,2.59
2022-07-27T05:51:49.817Z,2.88
2022-07-27T05:52:53.215Z,2.98
2022-07-27T05:53:55.628Z,2.36
2022-07-27T05:55:02.584Z,2.37
2022-07-27T05:56:09.234Z,2.39
2022-07-27T05:57:12.935Z,2.58
2022-07-27T05:58:16.428Z,2.16
2022-07-27T05:59:23.662Z,2.52
2022-07-27T06:00:26.837Z,2.22
2022-07-27T06:01:31.262Z,2.23
2022-07-27T06:02:37.297Z,2.10
2022-07-27T06:03:47.147Z,2.18
2022-07-27T06:04:46.265Z,2.08
2022-07-27T06:05:53.824Z,1.97
2022-07-27T06:07:17.478Z,2.23
2022-07-27T06:08:21.978Z,2.06
2022-07-27T06:09:25.124Z,2.15
2022-07-27T06:10:32.136Z,2.64
2022-07-27T06:11:35.937Z,2.39
2022-07-27T06:12:41.637Z,2.39
2022-07-27T06:13:45.345Z,2.45
2022-07-27T06:14:50.961Z,2.26
2022-07-27T06:15:54.342Z,2.10
2022-07-27T06:16:56.915Z,2.36
2022-07-27T06:18:02.024Z,2.19
2022-07-27T06:19:05.576Z,2.37
2022-07-27T06:20:09.800Z,2.16
2022-07-27T06:21:14.830Z,1.95
2022-07-27T06:22:19.134Z,2.03
2022-07-27T06:23:22.018Z,2.18
2022-07-27T06:24:25.729Z,1.86
2022-07-27T06:25:35.509Z,1.99
2022-07-27T06:26:43.221Z,1.86
2022-07-27T06:27:49.037Z,1.85
2022-07-27T06:28:54.642Z,1.96
2022-07-27T06:30:00.805Z,1.80
2022-07-27T06:31:04.765Z,1.72
2022-07-27T06:32:10.605Z,1.91
2022-07-27T06:33:15.406Z,2.09
2022-07-27T06:34:19.623Z,1.83
2022-07-27T06:35:23.860Z,2.04
2022-07-27T06:36:30.745Z,1.84
2022-07-27T06:37:44.149Z,1.81
2022-07-27T06:38:48.898Z,1.67
2022-07-27T06:39:52.711Z,1.77
2022-07-27T06:40:56.013Z,1.63
2022-07-27T06:41:58.743Z,1.56
2022-07-27T06:43:05.578Z,1.72
2022-07-27T06:44:10.487Z,1.88
2022-07-27T06:45:14.261Z,1.71
2022-07-27T06:46:19.331Z,1.84
2022-07-27T06:47:28.504Z,1.75
2022-07-27T06:48:30.498Z,1.82
2022-07-27T06:49:35.573Z,2.04
2022-07-27T06:50:42.626Z,1.94
2022-07-27T06:51:47.625Z,1.86
2022-07-27T06:52:51.277Z,1.91
2022-07-27T06:55:07.215Z,1.93
2022-07-27T06:56:11.355Z,1.96
2022-07-27T06:57:17.544Z,1.73
2022-07-27T06:58:25.306Z,2.02
2022-07-27T06:59:43.374Z,1.82
2022-07-27T07:00:36.042Z,1.89
2022-07-27T07:01:39.898Z,1.85
2022-07-27T07:03:00.062Z,1.91
2022-07-27T07:04:05.059Z,2.04
2022-07-27T07:05:10.521Z,1.83
2022-07-27T07:06:16.365Z,2.21
2022-07-27T07:07:25.090Z,1.75
2022-07-27T07:08:29.012Z,2.12
2022-07-27T07:09:33.094Z,1.64
2022-07-27T07:10:37.016Z,2.29
2022-07-27T07:11:40.541Z,2.14
2022-07-27T07:12:48.539Z,2.14
2022-07-27T07:13:55.279Z,2.23
2022-07-27T07:15:02.257Z,2.17
2022-07-27T07:16:06.185Z,2.07
2022-07-27T07:17:09.686Z,1.95
2022-07-27T07:18:17.574Z,2.23
2022-07-27T07:19:22.234Z,2.33
2022-07-27T07:20:30.161Z,2.05
2022-07-27T07:21:35.374Z,2.19
2022-07-27T07:22:41.118Z,2.23
2022-07-27T07:23:44.819Z,1.88
2022-07-27T07:24:48.531Z,1.79
2022-07-27T07:25:52.283Z,1.69
2022-07-27T07:26:58.071Z,1.96
2022-07-27T07:28:02.013Z,1.98
2022-07-27T07:29:06.264Z,1.91
2022-07-27T07:30:15.724Z,1.59
2022-07-27T07:31:20.882Z,1.71
2022-07-27T07:32:25.518Z,1.56
2022-07-27T07:33:30.355Z,1.42
2022-07-27T07:34:35.153Z,1.71
2022-07-27T07:36:12.101Z,1.69
2022-07-27T07:38:01.400Z,1.57
2022-07-27T07:39:06.061Z,1.58
2022-07-27T07:41:17.017Z,1.44
2022-07-27T07:42:21.154Z,1.51
2022-07-27T07:43:27.636Z,1.75
2022-07-27T07:44:30.951Z,1.72
2022-07-27T07:45:50.433Z,1.55
2022-07-27T07:46:47.453Z,1.71
2022-07-27T07:47:53.525Z,1.52
2022-07-27T07:48:57.479Z,1.50
2022-07-27T07:50:01.682Z,1.71
2022-07-27T07:51:05.496Z,1.80
2022-07-27T07:52:10.262Z,1.38
2022-07-27T07:53:15.410Z,1.57
2022-07-27T07:54:18.906Z,1.58
2022-07-27T07:55:25.522Z,1.59
2022-07-27T07:56:29.352Z,1.70
2022-07-27T07:57:33.113Z,1.77
2022-07-27T07:58:36.660Z,1.84
2022-07-27T07:59:43.830Z,1.51
2022-07-27T08:00:47.674Z,1.46
2022-07-27T08:01:51.488Z,1.56
2022-07-27T08:02:58.238Z,1.68
2022-07-27T08:04:03.813Z,1.61
2022-07-27T08:05:10.771Z,1.52
2022-07-27T08:06:16.256Z,1.61
2022-07-27T08:07:20.105Z,1.48
2022-07-27T08:08:24.835Z,1.79
2022-07-27T08:09:29.315Z,1.61
2022-07-27T08:10:32.544Z,1.74
2022-07-27T08:11:38.404Z,1.83
2022-07-27T08:12:45.783Z,1.80
2022-07-27T08:13:49.221Z,1.75
2022-07-27T08:14:53.107Z,1.76
2022-07-27T08:15:56.234Z,1.88
2022-07-27T08:17:09.447Z,1.83
2022-07-27T08:18:13.129Z,1.65
2022-07-27T08:19:16.582Z,1.82
2022-07-27T08:20:22.222Z,1.78
2022-07-27T08:21:26.366Z,1.79
2022-07-27T08:22:32.162Z,1.66
2022-07-27T08:23:35.709Z,1.95
2022-07-27T08:24:41.404Z,1.81
2022-07-27T08:25:47.083Z,1.91
2022-07-27T08:26:52.069Z,2.08
2022-07-27T08:27:59.163Z,1.92
2022-07-27T08:29:11.310Z,1.79
2022-07-27T08:30:11.717Z,1.79
2022-07-27T08:31:18.891Z,1.79
2022-07-27T08:32:28.705Z,2.02
2022-07-27T08:33:32.638Z,1.86
2022-07-27T08:34:39.091Z,1.59
2022-07-27T08:35:43.048Z,1.84
2022-07-27T08:36:46.616Z,1.64
2022-07-27T08:37:50.720Z,1.73
2022-07-27T08:38:55.648Z,1.86
2022-07-27T08:41:10.557Z,1.86
2022-07-27T08:42:15.151Z,1.72
2022-07-27T08:43:25.867Z,1.86
2022-07-27T08:44:29.368Z,1.79
2022-07-27T08:45:34.622Z,1.76
2022-07-27T08:46:41.303Z,1.83
2022-07-27T08:47:47.998Z,1.69
2022-07-27T08:48:52.617Z,1.86
2022-07-27T08:49:56.995Z,1.91
2022-07-27T08:51:01.115Z,1.77
2022-07-27T08:52:06.028Z,1.88
2022-07-27T08:53:11.356Z,1.87
2022-07-27T08:54:16.157Z,1.76
2022-07-27T08:55:20.602Z,1.60
2022-07-27T08:56:24.999Z,1.66
2022-07-27T08:57:31.428Z,1.72
2022-07-27T08:58:33.767Z,1.76
2022-07-27T08:59:37.692Z,1.57
2022-07-27T09:00:48.927Z,1.77
2022-07-27T09:01:51.630Z,1.89
2022-07-27T09:02:57.251Z,1.89
2022-07-27T09:04:00.899Z,1.73
2022-07-27T09:05:06.041Z,1.69
2022-07-27T09:06:11.165Z,1.98
2022-07-27T09:07:36.304Z,1.74
2022-07-27T09:08:41.101Z,2.02
2022-07-27T09:09:48.284Z,1.76
2022-07-27T09:10:56.887Z,1.73
2022-07-27T09:12:11.373Z,1.73
2022-07-27T09:13:26.970Z,1.88
2022-07-27T09:14:37.097Z,1.74
2022-07-27T09:16:15.771Z,1.88
2022-07-27T09:17:45.935Z,1.89
2022-07-27T09:18:00.253Z,1.77
2022-07-27T09:19:08.786Z,2.18
2022-07-27T09:20:19.319Z,1.52
2022-07-27T09:21:25.053Z,2.01
2022-07-27T09:22:44.997Z,1.96
2022-07-27T09:23:53.757Z,1.88
2022-07-27T09:25:04.583Z,1.77
2022-07-27T09:26:31.264Z,1.94
2022-07-27T09:27:27.636Z,1.76
2022-07-27T09:28:34.774Z,1.82
2022-07-27T09:29:38.238Z,1.96
2022-07-27T09:30:43.176Z,1.82
2022-07-27T09:31:50.108Z,1.73
2022-07-27T09:33:06.981Z,2.04
2022-07-27T09:34:11.727Z,1.67
2022-07-27T09:35:17.864Z,1.68
2022-07-27T09:36:24.892Z,1.62
2022-07-27T09:37:29.410Z,1.72
2022-07-27T09:38:33.446Z,1.60
2022-07-27T09:39:39.970Z,1.81
2022-07-27T09:40:44.312Z,1.67
2022-07-27T09:42:00.387Z,1.56
2022-07-27T09:44:12.527Z,1.76
2022-07-27T09:44:32.540Z,1.55
2022-07-27T09:45:35.834Z,1.50
2022-07-27T09:46:48.533Z,1.80
2022-07-27T09:47:53.488Z,1.50
2022-07-27T09:48:57.325Z,1.82
2022-07-27T09:50:20.543Z,1.86
2022-07-27T09:52:34.624Z,1.91
2022-07-27T09:53:43.659Z,1.56
2022-07-27T09:54:47.703Z,1.82
2022-07-27T09:56:04.120Z,1.83
2022-07-27T09:57:08.101Z,1.70
2022-07-27T09:58:15.897Z,1.95
2022-07-27T09:59:20.252Z,1.68
2022-07-27T10:00:27.948Z,1.60
2022-07-27T10:01:43.921Z,1.68
2022-07-27T10:02:48.606Z,1.90
2022-07-27T10:03:58.572Z,1.82
2022-07-27T10:05:03.877Z,1.95
2022-07-27T10:06:10.015Z,1.85
2022-07-27T10:07:15.167Z,1.64
2022-07-27T10:08:19.441Z,1.80
2022-07-27T10:09:22.882Z,1.69
2022-07-27T10:10:27.464Z,1.82
2022-07-27T10:11:32.223Z,1.59
2022-07-27T10:12:34.916Z,1.69
2022-07-27T10:13:43.914Z,1.72
2022-07-27T10:14:45.356Z,1.71
2022-07-27T10:15:49.079Z,1.53
2022-07-27T10:16:55.291Z,1.50
2022-07-27T10:18:07.171Z,1.68
2022-07-27T10:20:28.095Z,1.61
2022-07-27T10:21:34.468Z,1.70
2022-07-27T10:22:59.388Z,1.91
2022-07-27T10:24:09.950Z,1.64
2022-07-27T10:25:14.270Z,1.80
2022-07-27T10:26:24.313Z,1.71
2022-07-27T10:27:32.914Z,1.61
2022-07-27T10:29:52.135Z,1.40
2022-07-27T10:31:01.612Z,1.38
2022-07-27T10:32:08.568Z,1.44
2022-07-27T10:33:17.202Z,1.36
2022-07-27T10:34:41.496Z,1.40
2022-07-27T10:35:45.716Z,1.13
2022-07-27T10:36:56.314Z,1.51
2022-07-27T10:38:12.377Z,1.51
2022-07-27T10:39:34.268Z,1.48
2022-07-27T10:40:47.728Z,1.34
2022-07-27T10:41:51.534Z,1.37
2022-07-27T10:44:29.174Z,1.34
2022-07-27T10:47:04.794Z,1.60
2022-07-27T10:48:08.359Z,1.60
2022-07-27T10:49:20.952Z,1.65
2022-07-27T10:50:29.189Z,1.43
2022-07-27T10:51:36.319Z,1.38
2022-07-27T10:52:51.468Z,1.47
2022-07-27T10:54:11.860Z,1.68
2022-07-27T10:55:07.726Z,1.37
2022-07-27T10:56:12.483Z,1.49
2022-07-27T10:57:19.991Z,1.50
2022-07-27T10:58:30.467Z,1.64
2022-07-27T11:00:57.676Z,1.67
2022-07-27T11:03:29.831Z,1.46
2022-07-27T11:04:35.460Z,1.41
2022-07-27T11:05:59.685Z,1.49
2022-07-27T11:07:23.003Z,1.73
2022-07-27T11:10:17.943Z,1.76
2022-07-27T11:11:25.156Z,1.87
2022-07-27T11:12:29.621Z,1.54
2022-07-27T11:13:38.928Z,1.66
2022-07-27T11:14:50.214Z,1.67
2022-07-27T11:16:15.760Z,1.53
2022-07-27T11:18:15.869Z,1.84
2022-07-27T11:19:19.753Z,1.71
2022-07-27T11:20:28.729Z,1.53
2022-07-27T11:21:38.274Z,1.81
2022-07-27T11:25:05.989Z,2.13
2022-07-27T11:26:11.130Z,2.11
2022-07-27T11:27:20.001Z,2.04
2022-07-27T11:28:31.375Z,1.97
2022-07-27T11:29:43.532Z,1.91
2022-07-27T11:30:45.524Z,2.08
2022-07-27T11:31:58.957Z,2.08
2022-07-27T11:33:03.806Z,2.04
2022-07-27T11:34:10.378Z,1.72
2022-07-27T11:35:19.536Z,2.10
2022-07-27T11:36:22.502Z,1.88
2022-07-27T11:37:26.249Z,1.88
2022-07-27T11:38:30.691Z,1.79
2022-07-27T11:39:59.938Z,1.81
2022-07-27T11:40:57.313Z,1.79
2022-07-27T11:43:08.747Z,1.92
2022-07-27T11:44:17.047Z,1.91
2022-07-27T11:45:31.016Z,1.93
2022-07-27T11:46:38.925Z,1.91
2022-07-27T11:47:44.331Z,1.97
2022-07-27T11:49:07.261Z,1.91
2022-07-27T11:50:09.181Z,2.08
2022-07-27T11:51:14.980Z,2.13
2022-07-27T11:52:19.199Z,2.17
2022-07-27T11:53:21.946Z,1.78
2022-07-27T11:54:28.025Z,1.81
2022-07-27T11:55:31.886Z,1.99
2022-07-27T11:56:38.518Z,1.98
2022-07-27T11:57:41.862Z,1.86
2022-07-27T12:00:24.761Z,1.81
2022-07-27T12:01:40.109Z,2.10
2022-07-27T12:04:22.021Z,2.13
2022-07-27T12:05:25.938Z,1.89
2022-07-27T12:06:35.857Z,2.12
2022-07-27T12:07:43.585Z,2.33
2022-07-27T12:08:48.636Z,2.03
2022-07-27T12:09:56.687Z,1.95
2022-07-27T12:11:01.285Z,2.15
2022-07-27T12:12:14.941Z,2.10
2022-07-27T12:13:21.796Z,2.19
2022-07-27T12:15:46.761Z,2.34
2022-07-27T12:16:55.343Z,2.12
2022-07-27T12:17:58.336Z,2.08
2022-07-27T12:19:01.049Z,2.17
2022-07-27T12:20:15.406Z,2.15
2022-07-27T12:21:21.528Z,1.85
2022-07-27T12:22:31.993Z,2.11
2022-07-27T12:24:41.097Z,2.06
2022-07-27T12:25:46.459Z,2.04
2022-07-27T12:27:07.986Z,1.94
2022-07-27T12:28:16.831Z,2.41
2022-07-27T12:29:20.914Z,2.12
2022-07-27T12:30:51.878Z,2.19
2022-07-27T12:32:01.586Z,1.94
2022-07-27T12:33:10.287Z,1.99
2022-07-27T12:34:18.671Z,2.04
2022-07-27T12:35:36.220Z,1.93
2022-07-27T12:36:46.828Z,2.03
2022-07-27T12:38:03.340Z,1.95
2022-07-27T12:39:06.985Z,1.62
2022-07-27T12:40:15.349Z,1.59
2022-07-27T12:41:40.991Z,1.63
2022-07-27T12:42:50.739Z,1.68
2022-07-27T12:44:13.113Z,1.53
2022-07-27T12:45:19.494Z,1.68
2022-07-27T12:46:23.772Z,1.67
2022-07-27T12:47:46.145Z,1.58
2022-07-27T12:48:50.908Z,1.59
2022-07-27T12:50:05.896Z,1.55
2022-07-27T12:51:12.579Z,1.86
2022-07-27T12:52:15.668Z,1.66
2022-07-27T12:53:20.569Z,1.64
2022-07-27T12:54:23.792Z,1.47
2022-07-27T12:55:31.074Z,1.63
2022-07-27T12:56:36.739Z,1.48
2022-07-27T12:57:55.165Z,1.67
2022-07-27T12:59:04.472Z,1.83
2022-07-27T13:01:24.166Z,1.58
2022-07-27T13:02:27.968Z,1.55
2022-07-27T13:03:31.928Z,1.48
2022-07-27T13:04:35.618Z,1.70
2022-07-27T13:05:40.104Z,1.61
2022-07-27T13:07:00.187Z,1.37
2022-07-27T13:08:06.099Z,1.63
2022-07-27T13:09:11.880Z,1.74
2022-07-27T13:10:21.002Z,1.78
2022-07-27T13:12:47.392Z,1.48
2022-07-27T13:13:54.860Z,1.63
2022-07-27T13:15:00.036Z,1.64
2022-07-27T13:16:05.388Z,1.61
2022-07-27T13:17:10.684Z,1.46
2022-07-27T13:18:23.404Z,1.58
2022-07-27T13:19:31.060Z,1.63
2022-07-27T13:20:34.951Z,1.56
2022-07-27T13:21:38.642Z,1.49
2022-07-27T13:23:54.267Z,1.44
2022-07-27T13:24:58.436Z,1.46
2022-07-27T13:26:05.870Z,1.59
2022-07-27T13:27:12.060Z,1.57
2022-07-27T13:28:15.042Z,1.72
2022-07-27T13:29:26.108Z,1.49
2022-07-27T13:30:31.017Z,1.64
2022-07-27T13:31:36.456Z,1.56
2022-07-27T13:32:41.853Z,1.44
2022-07-27T13:35:09.044Z,1.62
2022-07-27T13:36:16.293Z,1.58
2022-07-27T13:37:21.565Z,1.62
2022-07-27T13:38:31.952Z,1.47
2022-07-27T13:40:40.613Z,1.62
2022-07-27T13:41:43.745Z,1.76
2022-07-27T13:42:47.814Z,1.50
2022-07-27T13:43:52.244Z,1.64
2022-07-27T13:45:07.914Z,1.61
2022-07-27T13:46:02.833Z,1.48
2022-07-27T13:47:08.511Z,1.79
2022-07-27T13:48:12.138Z,1.66
2022-07-27T13:49:19.076Z,1.43
2022-07-27T13:50:23.007Z,1.50
2022-07-27T13:51:29.275Z,1.82
2022-07-27T13:52:35.918Z,1.53
2022-07-27T13:53:40.257Z,1.54
2022-07-27T13:54:44.026Z,1.58
2022-07-27T13:55:48.050Z,1.41
2022-07-27T13:56:55.263Z,1.64
2022-07-27T13:58:01.483Z,1.38
2022-07-27T13:59:06.680Z,1.43
2022-07-27T14:00:16.874Z,1.60
2022-07-27T14:01:20.953Z,1.74
2022-07-27T14:02:25.742Z,1.55
2022-07-27T14:03:29.625Z,1.67
2022-07-27T14:04:37.187Z,1.61
2022-07-27T14:05:49.139Z,1.59
2022-07-27T14:06:48.417Z,1.57
2022-07-27T14:07:52.299Z,1.59
2022-07-27T14:08:54.927Z,1.50
2022-07-27T14:10:18.142Z,1.53
2022-07-27T14:11:21.928Z,1.61
2022-07-27T14:12:30.226Z,1.81
2022-07-27T14:13:34.158Z,1.61
2022-07-27T14:14:37.974Z,1.56
2022-07-27T14:15:52.543Z,1.68
2022-07-27T14:16:51.457Z,1.91
2022-07-27T14:17:56.887Z,1.74
2022-07-27T14:18:59.724Z,1.52
2022-07-27T14:20:05.411Z,1.94
2022-07-27T14:21:10.283Z,1.56
2022-07-27T14:22:14.310Z,1.46
2022-07-27T14:23:17.867Z,1.54
2022-07-27T14:24:22.477Z,1.45
2022-07-27T14:25:27.330Z,1.68
2022-07-27T14:26:32.086Z,1.72
2022-07-27T14:27:37.740Z,1.67
2022-07-27T14:28:41.213Z,1.88
2022-07-27T14:29:45.007Z,2.05
2022-07-27T14:30:49.593Z,1.73
2022-07-27T14:31:54.560Z,2.38
2022-07-27T14:32:59.329Z,1.80
2022-07-27T14:34:02.322Z,2.04
2022-07-27T14:35:10.404Z,1.66
2022-07-27T14:36:14.639Z,1.74
2022-07-27T14:37:18.113Z,1.76
2022-07-27T14:38:26.792Z,1.69
2022-07-27T14:39:30.394Z,2.39
2022-07-27T14:40:35.894Z,1.88
2022-07-27T14:41:42.558Z,1.97
2022-07-27T14:42:44.301Z,1.89
2022-07-27T14:43:48.800Z,1.99
2022-07-27T14:44:51.974Z,1.98
2022-07-27T14:45:59.366Z,1.90
2022-07-27T14:47:06.949Z,1.93
2022-07-27T14:48:14.868Z,2.13
2022-07-27T14:49:16.896Z,1.98
2022-07-27T14:50:22.766Z,2.16
2022-07-27T14:51:28.157Z,1.83
2022-07-27T14:52:30.924Z,1.81
2022-07-27T14:53:33.886Z,2.24
2022-07-27T14:54:37.904Z,2.22
2022-07-27T14:55:46.156Z,2.06
2022-07-27T14:56:49.999Z,2.30
2022-07-27T14:57:53.426Z,2.14
2022-07-27T14:58:58.077Z,2.03
2022-07-27T15:00:03.397Z,1.76
2022-07-27T15:01:07.800Z,2.14
2022-07-27T15:02:12.413Z,2.03
2022-07-27T15:03:16.113Z,2.10
2022-07-27T15:04:23.923Z,1.86
2022-07-27T15:05:29.801Z,1.90
2022-07-27T15:06:38.854Z,2.02
2022-07-27T15:07:43.778Z,1.87
2022-07-27T15:08:49.438Z,2.13
2022-07-27T15:09:53.074Z,2.05
2022-07-27T15:10:59.596Z,2.15
2022-07-27T15:12:03.437Z,2.13
2022-07-27T15:13:08.010Z,2.13
2022-07-27T15:14:18.832Z,2.40
2022-07-27T15:15:22.716Z,2.32
2022-07-27T15:16:32.562Z,1.81
2022-07-27T15:17:38.870Z,2.16